Time;durP1;ratioP1;P1;durP2;ratioP2;P2;SDS_P1;SDS_P2;PMS_P1;PMS_P2;Temp;Humidity;BMP_temperature;BMP_pressure;BME280_temperature;BME280_humidity;BME280_pressure;Samples;Min_cycle;Max_cycle;Signal;HPM_P1;HPM_P2
2020/12/08 00:00:08;;;;;;;2.22;1.80;;;;;;;22.21;29.97;100089.94;5001126;28;113856;-46
2020/12/08 00:02:34;;;;;;;1.60;1.50;;;;;;;22.23;30.04;100084.56;4999073;28;99171;-47
2020/12/08 00:05:00;;;;;;;2.20;2.00;;;;;;;22.22;29.73;100080.16;5006076;28;98593;-47
2020/12/08 00:07:25;;;;;;;2.55;1.60;;;;;;;22.22;30.13;100075.69;4997133;28;109813;-45
2020/12/08 00:09:51;;;;;;;1.55;1.33;;;;;;;22.21;29.64;100081.97;5005171;28;97400;-45
2020/12/08 00:12:21;;;;;;;1.73;1.63;;;;;;;22.22;30.07;100083.66;4998557;28;125375;-45
2020/12/08 00:14:46;;;;;;;1.80;1.50;;;;;;;22.22;30.19;100082.81;5001352;28;96755;-45
2020/12/08 00:17:12;;;;;;;2.15;1.60;;;;;;;22.22;30.22;100090.78;5000077;28;116449;-45
2020/12/08 00:19:37;;;;;;;1.60;1.45;;;;;;;22.22;29.85;100088.13;5005499;28;97485;-45
2020/12/08 00:22:03;;;;;;;1.45;1.35;;;;;;;22.22;30.13;100088.13;5005868;28;126598;-45
2020/12/08 00:24:28;;;;;;;1.92;1.83;;;;;;;22.22;30.07;100093.44;5002789;28;96906;-45
2020/12/08 00:26:54;;;;;;;2.20;1.50;;;;;;;22.21;29.84;100089.03;5001120;28;112943;-45
2020/12/08 00:29:19;;;;;;;1.90;1.70;;;;;;;22.21;29.94;100089.94;5004530;28;97730;-45
2020/12/08 00:31:45;;;;;;;1.95;1.45;;;;;;;22.21;29.92;100095.25;5001418;28;97969;-45
2020/12/08 00:34:10;;;;;;;1.75;1.50;;;;;;;22.20;30.06;100098.81;4999608;28;115632;-45
2020/12/08 00:36:36;;;;;;;1.77;1.58;;;;;;;22.21;29.91;100097.00;4997839;28;118892;-45
2020/12/08 00:39:01;;;;;;;1.58;1.48;;;;;;;22.21;30.06;100099.66;4999540;28;129359;-45
2020/12/08 00:41:27;;;;;;;2.58;1.65;;;;;;;22.20;29.62;100098.81;4986144;28;123630;-45
2020/12/08 00:43:52;;;;;;;1.60;1.50;;;;;;;22.20;29.79;100101.47;5014842;28;97445;-45
2020/12/08 00:46:18;;;;;;;1.80;1.50;;;;;;;22.21;29.88;100091.69;5004325;28;112682;-45
2020/12/08 00:48:44;;;;;;;2.05;1.40;;;;;;;22.20;29.71;100098.81;5004146;28;99628;-45
2020/12/08 00:51:10;;;;;;;1.55;1.45;;;;;;;22.21;29.97;100099.66;5005186;28;96870;-45
2020/12/08 00:53:35;;;;;;;1.58;1.48;;;;;;;22.20;29.72;100095.31;4973138;28;96855;-45
2020/12/08 00:56:09;;;;;;;2.65;1.30;;;;;;;22.19;30.00;100099.78;4998483;28;96925;-45
2020/12/08 00:58:34;;;;;;;1.60;1.40;;;;;;;22.20;29.76;100104.13;5007452;28;98586;-45
2020/12/08 01:01:00;;;;;;;2.95;1.60;;;;;;;22.20;29.93;100108.59;5001275;28;98450;-45
2020/12/08 01:03:25;;;;;;;1.48;1.38;;;;;;;22.20;30.17;100113.91;4998546;28;110895;-45
2020/12/08 01:05:51;;;;;;;1.55;1.45;;;;;;;22.21;30.05;100115.59;4992958;28;97757;-45
2020/12/08 01:08:17;;;;;;;1.40;1.30;;;;;;;22.21;30.06;100110.28;5002159;28;99921;-45
2020/12/08 01:10:42;;;;;;;1.80;1.50;;;;;;;22.20;30.00;100106.78;4999242;28;97351;-45
2020/12/08 01:13:08;;;;;;;1.77;1.38;;;;;;;22.21;30.07;100102.31;5004894;28;96900;-45
2020/12/08 01:15:34;;;;;;;2.58;1.50;;;;;;;22.21;29.72;100108.53;5003872;28;97391;-45
2020/12/08 01:18:00;;;;;;;1.48;1.35;;;;;;;22.21;29.91;100104.97;5000383;28;97598;-45
2020/12/08 01:20:29;;;;;;;1.92;1.30;;;;;;;22.22;29.62;100104.06;5000675;28;99694;-45
2020/12/08 01:22:55;;;;;;;1.65;1.45;;;;;;;22.21;29.68;100100.56;5012446;28;96858;-45
2020/12/08 01:25:22;;;;;;;1.42;1.23;;;;;;;22.22;29.91;100098.75;4993350;28;97003;-45
2020/12/08 01:27:48;;;;;;;1.63;1.40;;;;;;;22.21;29.91;100102.31;5003399;28;98532;-45
2020/12/08 01:30:13;;;;;;;1.50;1.17;;;;;;;22.23;30.00;100105.81;5007592;28;111518;-45
2020/12/08 01:32:44;;;;;;;1.50;1.30;;;;;;;22.23;29.97;100105.81;5008991;28;97142;-45
2020/12/08 01:35:10;;;;;;;1.63;1.52;;;;;;;22.22;29.94;100099.59;5006072;28;97354;-45
2020/12/08 01:37:43;;;;;;;1.70;1.35;;;;;;;22.22;29.70;100099.59;5009071;28;97627;-46
2020/12/08 01:40:09;;;;;;;1.40;1.25;;;;;;;22.22;29.92;100098.75;4980759;28;98313;-47
2020/12/08 01:42:35;;;;;;;1.40;1.30;;;;;;;22.21;29.84;100111.19;5008461;28;116960;-47
2020/12/08 01:48:02;;;;;;;1.38;1.17;;;;;;;22.20;29.91;100096.16;5018517;22;97165;-45
2020/12/08 01:50:30;;;;;;;1.40;1.20;;;;;;;22.20;29.79;100093.50;4966057;28;97435;-45
2020/12/08 01:52:56;;;;;;;1.50;1.23;;;;;;;22.20;29.71;100093.50;4952896;28;98446;-45
2020/12/08 01:55:22;;;;;;;2.03;1.85;;;;;;;22.20;29.81;100093.50;4951027;28;97421;-45
2020/12/08 01:57:49;;;;;;;1.30;1.20;;;;;;;22.20;30.08;100098.81;4937116;28;100467;-45
2020/12/08 02:00:18;;;;;;;1.33;1.10;;;;;;;22.21;29.75;100097.00;4953294;28;97436;-45
2020/12/08 02:02:45;;;;;;;1.30;1.17;;;;;;;22.21;29.67;100094.34;4956974;28;96878;-45
2020/12/08 02:05:22;;;;;;;1.75;1.42;;;;;;;22.21;29.85;100102.31;4934015;28;97242;-45
2020/12/08 02:07:49;;;;;;;1.50;1.30;;;;;;;22.20;29.84;100098.81;4936100;28;98899;-45
2020/12/08 02:10:15;;;;;;;1.70;1.20;;;;;;;22.20;30.20;100104.13;4952659;28;99445;-45
2020/12/08 02:12:41;;;;;;;1.83;1.73;;;;;;;22.20;29.80;100105.94;4947434;28;96886;-45
2020/12/08 02:15:08;;;;;;;1.80;1.50;;;;;;;22.20;30.01;100101.47;4965527;28;96934;-45
2020/12/08 02:17:38;;;;;;;1.50;1.33;;;;;;;22.21;29.97;100108.53;4967397;28;98721;-45
2020/12/08 02:20:05;;;;;;;1.40;1.25;;;;;;;22.21;30.10;100110.28;4952209;28;100483;-45
2020/12/08 02:22:33;;;;;;;1.40;1.30;;;;;;;22.21;29.94;100108.53;4942819;28;98048;-45
2020/12/08 02:24:59;;;;;;;1.63;1.52;;;;;;;22.21;29.61;100115.59;4948161;28;97638;-45
2020/12/08 02:27:24;;;;;;;1.63;1.52;;;;;;;22.21;29.61;100113.84;4962233;28;100112;-45
2020/12/08 02:29:55;;;;;;;1.58;1.30;;;;;;;22.21;29.92;100120.91;4955353;28;99194;-45
2020/12/08 02:32:22;;;;;;;1.42;1.27;;;;;;;22.21;29.62;100111.19;4962761;28;96962;-45
2020/12/08 02:34:48;;;;;;;1.88;1.77;;;;;;;22.21;29.61;100113.84;4947643;28;97665;-45
2020/12/08 02:37:14;;;;;;;1.60;1.40;;;;;;;22.20;30.00;100114.75;4962252;28;99795;-45
2020/12/08 02:39:45;;;;;;;1.75;1.23;;;;;;;22.20;29.87;100122.72;4950782;28;98633;-45
2020/12/08 02:42:10;;;;;;;1.67;1.30;;;;;;;22.21;29.58;100128.88;4959104;28;98862;-45
2020/12/08 02:44:36;;;;;;;1.35;1.20;;;;;;;22.20;29.75;100122.72;4958148;28;98039;-45
2020/12/08 02:47:01;;;;;;;1.48;1.23;;;;;;;22.21;29.74;100129.78;4965939;28;97486;-45
2020/12/08 02:49:27;;;;;;;1.90;1.75;;;;;;;22.22;29.83;100125.31;4964735;28;98637;-45
2020/12/08 02:52:00;;;;;;;1.50;1.40;;;;;;;22.21;29.97;100132.44;4951914;28;98527;-45
2020/12/08 02:54:31;;;;;;;1.48;1.30;;;;;;;22.21;29.91;100123.56;4948162;28;97012;-45
2020/12/08 02:57:05;;;;;;;1.25;1.15;;;;;;;22.20;29.95;100122.72;4951359;28;99891;-45
2020/12/08 02:59:34;;;;;;;1.30;1.10;;;;;;;22.21;29.73;100124.47;4969372;28;99972;-45
2020/12/08 03:02:00;;;;;;;1.33;1.10;;;;;;;22.21;29.77;100116.50;4967077;28;96900;-45
2020/12/08 03:04:29;;;;;;;1.30;1.10;;;;;;;22.21;29.73;100119.16;4956366;28;97241;-45
2020/12/08 03:06:55;;;;;;;1.35;1.20;;;;;;;22.21;29.80;100118.25;4944148;28;97603;-45
2020/12/08 03:09:22;;;;;;;1.20;1.08;;;;;;;22.20;29.94;100122.72;4966132;28;99375;-45
2020/12/08 03:11:47;;;;;;;1.70;0.90;;;;;;;22.21;29.59;100121.81;4963089;28;96817;-45
2020/12/08 03:14:19;;;;;;;1.42;1.10;;;;;;;22.20;29.59;100117.41;4967644;28;96835;-45
2020/12/08 03:16:47;;;;;;;1.35;1.20;;;;;;;22.21;29.88;100120.91;4956348;28;99626;-45
2020/12/08 03:19:13;;;;;;;1.67;1.30;;;;;;;22.20;29.91;100114.75;4961888;28;98292;-45
2020/12/08 03:21:39;;;;;;;1.63;1.20;;;;;;;22.20;29.94;100112.09;4947067;28;96696;-45
2020/12/08 03:24:15;;;;;;;1.50;1.27;;;;;;;22.21;29.92;100119.16;4966313;28;97064;-45
2020/12/08 03:26:41;;;;;;;1.73;1.25;;;;;;;22.22;29.90;100125.31;4956751;28;97856;-45
2020/12/08 03:29:07;;;;;;;1.50;1.10;;;;;;;22.21;29.92;100118.25;4960951;28;97462;-45
2020/12/08 03:31:33;;;;;;;1.30;1.20;;;;;;;22.22;30.00;100125.31;4952406;28;96913;-45
2020/12/08 03:34:01;;;;;;;2.22;1.10;;;;;;;22.22;29.55;100126.16;4962196;28;97049;-45
2020/12/08 03:36:27;;;;;;;1.10;1.00;;;;;;;22.21;29.88;100135.09;4942338;28;99262;-45
2020/12/08 03:38:52;;;;;;;1.50;1.20;;;;;;;22.21;29.81;100127.13;4944284;28;106750;-44
2020/12/08 03:41:24;;;;;;;1.42;1.30;;;;;;;22.21;29.85;100123.56;4946039;28;96875;-45
2020/12/08 03:43:53;;;;;;;1.20;1.10;;;;;;;22.21;29.52;100126.22;4941890;28;96894;-45
2020/12/08 03:46:22;;;;;;;1.42;1.20;;;;;;;22.21;29.88;100126.22;4961393;28;99396;-45
2020/12/08 03:48:48;;;;;;;1.80;1.10;;;;;;;22.21;29.96;100127.13;4957301;28;97466;-45
2020/12/08 03:51:15;;;;;;;1.23;1.13;;;;;;;22.21;29.78;100129.78;4939533;28;97154;-45
2020/12/08 03:53:41;;;;;;;1.65;1.20;;;;;;;22.21;29.82;100123.56;4957772;28;97099;-45
2020/12/08 03:56:14;;;;;;;1.23;1.10;;;;;;;22.20;29.62;100129.84;4957673;28;100376;-45
2020/12/08 03:58:41;;;;;;;1.30;1.17;;;;;;;22.20;29.89;100125.38;4996374;23;97368;-38
2020/12/08 04:01:34;;;;;;;1.38;1.10;;;;;;;22.19;29.59;100128.09;5014261;28;96746;-38
2020/12/08 04:03:59;;;;;;;1.30;1.02;;;;;;;22.20;29.63;100132.50;5013508;28;96973;-39
2020/12/08 04:06:26;;;;;;;1.48;1.13;;;;;;;22.19;29.76;100128.09;5014715;28;99642;-38
2020/12/08 04:08:53;;;;;;;1.20;1.00;;;;;;;22.19;29.78;100126.34;5031531;28;99689;-38
2020/12/08 04:11:25;;;;;;;1.63;1.40;;;;;;;22.19;29.72;100133.41;5011250;28;96983;-39
2020/12/08 04:13:52;;;;;;;1.40;1.20;;;;;;;22.19;29.89;100130.75;5014358;28;96982;-39
2020/12/08 04:16:18;;;;;;;1.50;1.23;;;;;;;22.19;29.65;100131.66;4997397;28;99881;-39
2020/12/08 04:18:48;;;;;;;1.70;1.38;;;;;;;22.19;29.66;100129.00;5014404;28;99154;-39
2020/12/08 04:21:21;;;;;;;1.35;1.20;;;;;;;22.19;29.59;100131.66;5030987;28;96846;-39
2020/12/08 04:23:48;;;;;;;1.50;1.38;;;;;;;22.19;29.72;100130.75;5010235;28;97032;-39
2020/12/08 04:26:13;;;;;;;1.30;1.17;;;;;;;22.19;29.89;100129.00;5013801;28;99504;-39
2020/12/08 04:28:44;;;;;;;1.40;1.10;;;;;;;22.19;29.95;100122.78;5012454;28;97453;-38
2020/12/08 04:31:14;;;;;;;1.27;1.10;;;;;;;22.20;29.78;100127.19;5014854;28;96838;-38
2020/12/08 04:33:40;;;;;;;1.35;1.25;;;;;;;22.20;29.75;100127.19;4990019;28;96992;-39
2020/12/08 04:36:12;;;;;;;1.55;1.20;;;;;;;22.20;29.89;100136.00;4992691;28;104404;-38
2020/12/08 04:38:38;;;;;;;1.38;1.15;;;;;;;22.21;29.64;100132.44;5029769;28;98403;-38
2020/12/08 04:41:03;;;;;;;1.63;1.30;;;;;;;22.21;29.67;100135.09;5004708;28;96688;-38
2020/12/08 04:43:29;;;;;;;1.48;1.17;;;;;;;22.21;29.85;100134.19;5030728;28;106759;-38
2020/12/08 04:45:54;;;;;;;1.70;1.60;;;;;;;22.21;29.67;100129.78;5029423;28;97487;-38
2020/12/08 04:48:20;;;;;;;1.50;1.30;;;;;;;22.22;29.42;100143.91;4993536;28;98008;-38
2020/12/08 04:50:45;;;;;;;1.50;1.40;;;;;;;22.21;29.81;100136.84;5032064;28;102062;-38
2020/12/08 04:53:11;;;;;;;1.40;1.30;;;;;;;22.21;29.83;100132.44;5028729;28;118043;-38
2020/12/08 04:55:36;;;;;;;1.20;1.05;;;;;;;22.20;29.52;100138.66;5032552;28;97540;-38
2020/12/08 04:58:02;;;;;;;2.17;1.30;;;;;;;22.22;29.88;100141.25;5002054;28;97311;-38
2020/12/08 05:00:27;;;;;;;1.20;1.08;;;;;;;22.22;29.96;100130.63;5029990;28;117152;-39
2020/12/08 05:02:54;;;;;;;1.92;1.58;;;;;;;22.22;29.85;100136.78;5001082;28;111673;-39
2020/12/08 05:05:20;;;;;;;1.48;1.13;;;;;;;22.22;29.60;100136.78;5015277;28;97533;-39
2020/12/08 05:07:45;;;;;;;1.77;1.33;;;;;;;22.21;29.49;100135.09;4998652;28;99263;-38
2020/12/08 05:10:12;;;;;;;1.77;1.20;;;;;;;22.23;29.59;100135.03;5018660;28;96889;-39
2020/12/08 05:12:37;;;;;;;1.45;1.10;;;;;;;22.22;29.47;100134.13;5016824;28;97111;-38
2020/12/08 05:15:03;;;;;;;1.50;1.20;;;;;;;22.22;29.85;100131.47;5035380;28;126792;-39
2020/12/08 05:17:29;;;;;;;1.48;1.15;;;;;;;22.21;29.73;100135.09;5032868;28;126139;-39
2020/12/08 05:20:07;;;;;;;1.27;1.05;;;;;;;22.21;29.49;100128.88;4988198;28;96910;-39
2020/12/08 05:22:33;;;;;;;1.52;1.20;;;;;;;22.21;29.61;100132.44;5030672;28;96860;-39
2020/12/08 05:25:16;;;;;;;1.38;1.10;;;;;;;22.20;29.76;100133.34;5034113;28;97440;-39
2020/12/08 05:27:43;;;;;;;1.30;1.15;;;;;;;22.21;29.65;100139.50;5033726;28;97363;-38
2020/12/08 05:30:09;;;;;;;1.50;1.27;;;;;;;22.21;29.62;100143.06;5035626;28;97173;-39
2020/12/08 05:32:35;;;;;;;1.90;1.15;;;;;;;22.22;29.71;100141.25;5033262;28;117684;-38
2020/12/08 05:35:03;;;;;;;1.70;1.20;;;;;;;22.21;29.73;100144.81;5000072;28;99667;-38
2020/12/08 05:37:40;;;;;;;1.52;1.30;;;;;;;22.21;29.87;100145.72;5014733;28;97208;-38
2020/12/08 05:40:10;;;;;;;1.40;1.25;;;;;;;22.21;29.86;100145.72;5017150;28;96880;-38
2020/12/08 05:42:37;;;;;;;1.48;1.30;;;;;;;22.21;29.60;100148.38;5033176;28;96798;-38
2020/12/08 05:45:03;;;;;;;1.45;1.30;;;;;;;22.21;29.46;100151.03;5034327;28;97580;-38
2020/12/08 05:47:28;;;;;;;1.40;1.23;;;;;;;22.23;29.58;100150.97;5034507;28;97175;-38
2020/12/08 05:50:00;;;;;;;1.55;1.20;;;;;;;22.21;29.73;100148.38;5016805;28;116943;-38
2020/12/08 05:52:29;;;;;;;1.30;1.10;;;;;;;22.22;29.80;100149.22;5033195;28;96565;-39
2020/12/08 05:55:16;;;;;;;1.63;1.15;;;;;;;22.20;29.48;100157.25;5034561;28;97685;-39
2020/12/08 05:57:42;;;;;;;1.50;1.30;;;;;;;22.21;29.67;100159.00;5012548;28;100586;-38
2020/12/08 06:00:18;;;;;;;1.83;1.30;;;;;;;22.21;29.54;100159.00;5034268;28;96797;-39
2020/12/08 06:02:44;;;;;;;1.30;1.20;;;;;;;22.21;29.58;100159.00;5014633;28;112177;-39
2020/12/08 06:05:09;;;;;;;1.30;1.08;;;;;;;22.22;29.65;100168.66;5014971;28;127273;-39
2020/12/08 06:07:35;;;;;;;1.15;0.93;;;;;;;22.22;29.74;100163.34;5015861;28;126556;-39
2020/12/08 06:10:04;;;;;;;1.67;1.20;;;;;;;22.23;29.84;100174.88;5001679;28;116825;-38
2020/12/08 06:12:30;;;;;;;1.65;1.20;;;;;;;22.22;29.87;100176.63;5014729;28;97604;-38
2020/12/08 06:14:55;;;;;;;1.52;1.30;;;;;;;22.22;29.83;100176.63;5032719;28;127441;-39
2020/12/08 06:17:21;;;;;;;1.30;1.20;;;;;;;22.23;29.42;100182.84;4998840;28;109793;-39
2020/12/08 06:19:46;;;;;;;1.55;1.15;;;;;;;22.23;29.59;100185.50;5034125;28;113242;-39
2020/12/08 06:22:12;;;;;;;1.45;1.33;;;;;;;22.24;29.84;100184.53;5031915;28;118579;-39
2020/12/08 06:24:53;;;;;;;1.50;1.30;;;;;;;22.21;29.78;100188.22;5031926;28;97547;-39
2020/12/08 06:27:22;;;;;;;1.50;1.27;;;;;;;22.24;29.85;100195.16;5031147;28;97329;-38
2020/12/08 06:29:49;;;;;;;1.20;1.10;;;;;;;22.22;29.84;100197.88;5016674;28;97538;-39
2020/12/08 06:32:24;;;;;;;1.35;1.20;;;;;;;22.22;29.84;100187.25;5033554;28;96778;-38
2020/12/08 06:34:50;;;;;;;2.42;1.33;;;;;;;22.22;29.77;100192.56;5032784;28;97718;-38
2020/12/08 06:37:15;;;;;;;1.52;1.20;;;;;;;22.23;29.77;100201.44;5033224;28;126553;-38
2020/12/08 06:39:41;;;;;;;1.30;1.08;;;;;;;22.22;29.85;100200.53;5031540;28;110867;-39
2020/12/08 06:42:15;;;;;;;1.70;1.23;;;;;;;22.22;29.87;100200.53;5013678;28;117039;-38
2020/12/08 06:44:41;;;;;;;1.30;1.20;;;;;;;22.22;29.48;100203.19;5013066;28;127585;-39
2020/12/08 06:47:06;;;;;;;1.50;1.02;;;;;;;22.23;29.60;100207.59;4998159;28;126739;-39
2020/12/08 06:49:38;;;;;;;1.73;1.30;;;;;;;22.22;29.55;100191.72;5032184;28;111924;-39
2020/12/08 06:52:07;;;;;;;1.60;1.30;;;;;;;22.23;29.85;100202.28;5031291;28;96711;-38
2020/12/08 06:54:33;;;;;;;1.60;1.38;;;;;;;22.23;29.67;100198.78;5002814;28;127206;-38
2020/12/08 06:57:02;;;;;;;1.67;1.38;;;;;;;22.22;29.45;100197.88;5014395;28;126601;-39
2020/12/08 06:59:28;;;;;;;1.70;1.40;;;;;;;22.23;29.47;100193.47;5033316;28;115578;-39
2020/12/08 07:01:54;;;;;;;1.42;1.33;;;;;;;22.23;29.53;100196.13;5031223;28;96877;-39
2020/12/08 07:04:20;;;;;;;1.48;1.30;;;;;;;22.23;29.51;100198.78;5033954;28;97575;-38
2020/12/08 07:06:45;;;;;;;1.38;1.13;;;;;;;22.23;29.57;100196.97;5016190;28;97208;-39
2020/12/08 07:09:11;;;;;;;1.55;1.20;;;;;;;22.22;29.61;100205.00;5015941;28;97325;-39
2020/12/08 07:11:36;;;;;;;2.85;1.60;;;;;;;22.22;29.55;100205.00;4984626;28;99127;-38
2020/12/08 07:14:04;;;;;;;1.23;1.13;;;;;;;22.22;29.88;100207.66;4983583;28;99899;-39
2020/12/08 07:16:30;;;;;;;1.50;1.10;;;;;;;22.22;29.42;100211.16;5015391;28;98570;-39
2020/12/08 07:18:56;;;;;;;1.50;1.40;;;;;;;22.22;29.72;100212.97;5032807;28;97277;-39
2020/12/08 07:21:22;;;;;;;1.75;1.30;;;;;;;22.22;29.49;100223.59;5030451;28;96862;-39
2020/12/08 07:23:50;;;;;;;2.08;1.50;;;;;;;22.22;29.49;100220.94;5031453;28;97586;-38
2020/12/08 07:26:16;;;;;;;1.52;1.13;;;;;;;22.22;29.79;100226.25;5032365;28;97131;-39
2020/12/08 07:28:42;;;;;;;1.63;1.23;;;;;;;22.22;29.78;100235.06;4984891;28;106006;-39
2020/12/08 07:31:27;;;;;;;1.52;1.25;;;;;;;22.20;29.63;100242.25;5031854;28;96812;-38
2020/12/08 07:33:53;;;;;;;1.52;1.42;;;;;;;22.20;29.58;100236.94;5014066;28;97566;-39
2020/12/08 07:36:28;;;;;;;1.92;1.30;;;;;;;22.21;29.65;100246.66;5032832;28;97181;-38
2020/12/08 07:38:54;;;;;;;1.38;1.20;;;;;;;22.21;29.68;100244.00;5015461;28;97372;-39
2020/12/08 07:41:20;;;;;;;1.73;1.45;;;;;;;22.19;29.87;100240.56;5011348;28;97470;-39
2020/12/08 07:43:46;;;;;;;1.90;1.70;;;;;;;22.21;29.62;100245.75;5012612;28;97776;-38
2020/12/08 07:46:11;;;;;;;1.55;1.23;;;;;;;22.20;29.53;100247.56;5028755;28;97115;-39
2020/12/08 07:48:37;;;;;;;1.90;1.20;;;;;;;22.21;29.55;100254.63;5033047;28;97301;-39
2020/12/08 07:51:02;;;;;;;1.40;1.30;;;;;;;22.21;29.51;100251.97;5014458;28;116464;-38
2020/12/08 07:53:37;;;;;;;1.40;1.30;;;;;;;22.21;29.54;100249.31;5012739;28;98154;-38
2020/12/08 07:56:03;;;;;;;1.70;1.60;;;;;;;22.21;29.75;100261.69;5007077;28;96832;-38
2020/12/08 07:58:28;;;;;;;1.67;1.38;;;;;;;22.22;29.91;100252.81;4995261;28;96940;-38
2020/12/08 08:00:54;;;;;;;1.58;1.45;;;;;;;22.22;29.75;100264.28;5031729;28;117527;-39
2020/12/08 08:03:19;;;;;;;1.45;1.25;;;;;;;22.21;29.88;100254.63;4986092;28;126752;-39
2020/12/08 08:05:44;;;;;;;1.85;1.20;;;;;;;22.22;29.48;100256.31;5030094;28;126493;-38
2020/12/08 08:08:11;;;;;;;1.48;1.27;;;;;;;22.22;29.65;100255.47;5016125;28;96737;-38
2020/12/08 08:10:36;;;;;;;1.80;1.30;;;;;;;22.21;29.46;100254.63;5031884;28;116631;-38
2020/12/08 08:13:02;;;;;;;1.73;1.38;;;;;;;22.22;29.59;100260.78;5030914;28;126721;-39
2020/12/08 08:15:27;;;;;;;1.85;1.52;;;;;;;22.21;29.77;100261.69;5030549;28;103621;-39
2020/12/08 08:17:53;;;;;;;1.52;1.20;;;;;;;22.21;29.33;100264.34;5031393;28;113944;-39
2020/12/08 08:20:18;;;;;;;1.50;1.23;;;;;;;22.21;29.62;100262.59;5031843;28;96709;-39
2020/12/08 08:22:44;;;;;;;1.80;1.30;;;;;;;22.21;29.36;100262.59;5026775;28;126634;-39
2020/12/08 08:25:09;;;;;;;1.60;1.40;;;;;;;22.21;29.55;100267.00;5031513;28;97464;-39
2020/12/08 08:27:36;;;;;;;1.90;1.70;;;;;;;22.21;29.75;100267.91;5030988;28;97347;-39
2020/12/08 08:30:01;;;;;;;1.95;1.55;;;;;;;22.20;29.73;100274.13;5032649;28;96994;-39
2020/12/08 08:32:27;;;;;;;2.17;1.80;;;;;;;22.20;29.66;100274.13;5029992;28;97655;-39
2020/12/08 08:34:52;;;;;;;1.60;1.40;;;;;;;22.20;29.54;100266.16;5032645;28;126640;-38
2020/12/08 08:37:40;;;;;;;8.88;8.35;;;;;;;22.19;29.42;100268.88;5046079;22;116939;-92
2020/12/08 08:40:12;;;;;;;2.10;1.27;;;;;;;22.21;29.56;100269.66;4959317;28;96712;-92
2020/12/08 08:42:41;;;;;;;1.83;1.50;;;;;;;22.20;29.71;100265.31;4980676;28;99628;-92
2020/12/08 08:45:06;;;;;;;1.67;1.35;;;;;;;22.18;29.63;100265.38;4978389;28;99776;-92
2020/12/08 08:47:32;;;;;;;3.08;1.70;;;;;;;22.20;29.63;100273.28;4973203;28;97050;-92
2020/12/08 08:50:05;;;;;;;2.92;1.33;;;;;;;22.20;29.52;100266.16;4958283;28;96998;-92
2020/12/08 08:52:33;;;;;;;2.47;1.50;;;;;;;22.18;29.30;100270.69;4989448;28;99500;-92
2020/12/08 08:54:59;;;;;;;2.67;1.50;;;;;;;22.19;29.69;100268.88;4956133;28;101602;-92
2020/12/08 08:57:25;;;;;;;2.63;1.38;;;;;;;22.19;29.62;100269.75;4977509;28;96683;-93
2020/12/08 08:59:51;;;;;;;3.90;1.70;;;;;;;22.18;29.54;100268.03;4996380;28;96643;-92
2020/12/08 09:02:59;;;;;;;3.33;1.70;;;;;;;22.19;29.48;100275.09;4955988;28;100250;-91
2020/12/08 09:05:41;;;;;;;;;;;;;;;22.13;29.82;100271.81;4988491;28;96904;-91
2020/12/08 09:08:07;;;;;;;2.35;1.40;;;;;;;22.15;29.70;100278.78;4973750;28;96775;-92
2020/12/08 09:10:33;;;;;;;2.70;1.55;;;;;;;22.16;29.54;100280.53;4980802;28;96668;-92
2020/12/08 09:13:01;;;;;;;2.65;1.60;;;;;;;22.16;29.69;100284.97;4958742;28;99816;-91
2020/12/08 09:15:27;;;;;;;3.35;1.92;;;;;;;22.15;29.18;100284.09;4968147;28;99584;-90
2020/12/08 09:17:53;;;;;;;1.90;1.70;;;;;;;22.16;29.41;100285.84;4977107;28;96707;-91
2020/12/08 09:20:22;;;;;;;1.98;1.77;;;;;;;22.16;29.44;100280.53;4971549;28;96632;-93
2020/12/08 09:22:47;;;;;;;2.80;1.48;;;;;;;22.17;29.61;100284.88;4959491;28;99316;-92
2020/12/08 09:25:22;;;;;;;2.25;1.80;;;;;;;22.16;29.71;100288.50;4961271;28;99011;-91
2020/12/08 09:27:47;;;;;;;3.58;2.10;;;;;;;22.16;29.60;100291.16;4958510;28;96782;-92
2020/12/08 09:30:13;;;;;;;2.45;2.10;;;;;;;22.16;29.70;100304.44;4967945;28;97165;-92
2020/12/08 09:32:38;;;;;;;2.97;1.45;;;;;;;22.18;29.63;100307.03;4959134;28;99262;-91
2020/12/08 09:35:04;;;;;;;2.03;1.70;;;;;;;22.18;29.42;100299.91;4978116;28;98989;-92
2020/12/08 09:37:29;;;;;;;3.75;2.15;;;;;;;22.19;29.46;100306.94;4960573;28;96970;-92
2020/12/08 09:39:55;;;;;;;2.05;1.77;;;;;;;22.19;29.44;100306.06;4961810;28;96922;-92
2020/12/08 09:42:21;;;;;;;2.67;1.77;;;;;;;22.18;29.34;100304.34;4978062;28;99289;-92
2020/12/08 09:44:47;;;;;;;2.30;2.00;;;;;;;22.18;29.46;100299.91;4957957;28;99715;-92
2020/12/08 09:47:18;;;;;;;5.55;3.58;;;;;;;22.17;29.24;100308.78;4982274;28;96688;-91
2020/12/08 09:49:44;;;;;;;4.03;2.15;;;;;;;22.17;29.17;100307.94;4976002;28;97385;-92
2020/12/08 09:52:10;;;;;;;3.15;1.90;;;;;;;22.14;29.59;100298.31;4967505;28;98956;-91
2020/12/08 09:54:35;;;;;;;3.20;2.10;;;;;;;22.14;29.10;100308.94;4975931;28;99157;-92
2020/12/08 09:57:02;;;;;;;4.22;2.25;;;;;;;22.14;29.44;100302.75;4961880;28;96723;-92
2020/12/08 09:59:29;;;;;;;2.67;1.80;;;;;;;22.14;29.42;100306.28;5002450;22;98321;-46
2020/12/08 10:01:54;;;;;;;3.92;1.90;;;;;;;22.14;29.31;100302.75;4972702;28;126891;-46
2020/12/08 10:04:23;;;;;;;5.43;2.00;;;;;;;22.14;29.50;100300.09;4974224;28;117751;-46
2020/12/08 10:06:49;;;;;;;3.13;1.98;;;;;;;22.14;29.31;100308.06;4977938;28;96693;-46
2020/12/08 10:09:14;;;;;;;2.10;1.90;;;;;;;22.13;29.52;100301.91;4996591;28;96554;-46
2020/12/08 10:11:40;;;;;;;3.05;1.83;;;;;;;22.13;29.46;100295.72;4994662;28;119874;-46
2020/12/08 10:14:06;;;;;;;2.88;1.88;;;;;;;22.13;29.35;100301.91;5013571;28;98317;-46
2020/12/08 10:16:32;;;;;;;2.55;1.73;;;;;;;22.14;29.14;100308.06;5015252;28;96765;-46
2020/12/08 10:18:59;;;;;;;3.22;1.88;;;;;;;22.12;29.32;100310.81;4982279;28;96818;-46
2020/12/08 10:21:25;;;;;;;2.40;1.92;;;;;;;22.13;29.30;100306.34;4961590;28;108448;-46
2020/12/08 10:23:51;;;;;;;3.22;2.00;;;;;;;22.13;29.24;100303.69;4994925;28;97158;-46
2020/12/08 10:26:16;;;;;;;2.58;1.60;;;;;;;22.12;29.59;100301.97;4995711;28;96741;-46
2020/12/08 10:28:42;;;;;;;2.72;1.80;;;;;;;22.12;29.36;100294.00;4959680;28;117612;-46
2020/12/08 10:31:07;;;;;;;2.38;1.80;;;;;;;22.13;29.11;100295.72;4986727;28;99625;-46
2020/12/08 10:33:33;;;;;;;4.15;1.80;;;;;;;22.12;29.65;100297.53;4987324;28;121843;-47
2020/12/08 10:35:58;;;;;;;4.88;2.85;;;;;;;22.12;29.21;100292.22;4984303;28;96640;-47
2020/12/08 10:38:24;;;;;;;4.53;2.58;;;;;;;22.11;29.27;100298.44;4986597;28;96743;-46
2020/12/08 10:40:51;;;;;;;5.10;2.30;;;;;;;22.09;29.18;100305.63;4987931;28;97559;-46
2020/12/08 10:43:17;;;;;;;4.57;2.53;;;;;;;22.09;29.07;100310.09;4990325;28;97238;-46
2020/12/08 10:45:43;;;;;;;3.25;2.10;;;;;;;22.10;29.66;100311.78;4988040;28;96807;-46
2020/12/08 10:48:09;;;;;;;4.10;2.20;;;;;;;22.10;29.25;100310.00;4975496;28;108492;-47
2020/12/08 10:50:35;;;;;;;4.28;3.17;;;;;;;22.09;29.65;100308.28;4979806;28;127546;-46
2020/12/08 10:53:00;;;;;;;4.97;2.22;;;;;;;22.09;29.33;100308.28;4986108;28;97309;-48
2020/12/08 10:55:26;;;;;;;4.65;2.10;;;;;;;22.10;29.52;100311.78;4986787;28;97343;-46
2020/12/08 10:57:51;;;;;;;2.63;1.88;;;;;;;22.09;29.28;100316.25;4979828;28;116817;-47
2020/12/08 11:00:17;;;;;;;4.50;2.28;;;;;;;22.10;29.37;100312.66;4989298;28;97550;-46
2020/12/08 11:02:42;;;;;;;2.70;2.08;;;;;;;22.10;29.23;100317.97;4984844;28;97139;-46
2020/12/08 11:05:08;;;;;;;2.55;1.92;;;;;;;22.11;29.31;100309.06;4992689;28;100096;-46
2020/12/08 11:07:34;;;;;;;3.60;1.73;;;;;;;22.12;29.26;100309.94;4980658;28;112314;-44
2020/12/08 11:09:59;;;;;;;5.15;2.33;;;;;;;22.13;29.59;100314.31;4974322;28;97646;-45
2020/12/08 11:12:25;;;;;;;8.00;2.30;;;;;;;22.14;29.52;100316.03;5006928;28;108621;-46
2020/12/08 11:14:50;;;;;;;10.68;2.40;;;;;;;22.14;29.41;100302.75;4995057;28;97189;-46
2020/12/08 11:17:17;;;;;;;6.25;2.05;;;;;;;22.16;29.37;100304.44;4976523;28;96816;-47
2020/12/08 11:19:42;;;;;;;6.65;2.10;;;;;;;22.16;29.71;100307.09;4959699;28;126052;-47
2020/12/08 11:22:09;;;;;;;4.93;2.20;;;;;;;22.17;29.58;100297.31;5007215;28;97199;-47
2020/12/08 11:24:36;;;;;;;5.55;2.17;;;;;;;22.17;29.60;100299.97;5004881;28;96754;-47
2020/12/08 11:27:01;;;;;;;5.85;2.00;;;;;;;22.18;29.43;100299.06;4994808;28;96748;-46